createdAt,value
2023-03-28T00:01:19.013Z,5.57
2023-03-28T00:03:48.066Z,8.07
2023-03-28T00:06:20.968Z,4.70
2023-03-28T00:08:51.291Z,4.93
2023-03-28T00:11:23.135Z,7.37
2023-03-28T00:13:54.046Z,7.27
2023-03-28T00:16:27.210Z,6.53
2023-03-28T00:18:55.767Z,6.40
2023-03-28T00:21:26.216Z,4.43
2023-03-28T00:23:58.064Z,7.97
2023-03-28T00:26:27.669Z,5.57
2023-03-28T00:28:57.573Z,8.67
2023-03-28T00:31:27.207Z,6.27
2023-03-28T00:33:57.082Z,6.20
2023-03-28T00:36:29.592Z,7.93
2023-03-28T00:39:04.403Z,3.87
2023-03-28T00:41:35.821Z,5.97
2023-03-28T00:44:42.481Z,5.87
2023-03-28T00:47:20.674Z,7.40
2023-03-28T00:49:53.912Z,9.40
2023-03-28T00:52:26.304Z,9.83
2023-03-28T00:54:58.056Z,7.60
2023-03-28T00:57:30.650Z,7.30
2023-03-28T00:59:59.550Z,9.33
2023-03-28T01:02:28.250Z,9.37
2023-03-28T01:05:03.908Z,20.13
2023-03-28T01:07:40.382Z,29.07
2023-03-28T01:10:11.087Z,37.57
2023-03-28T01:12:43.047Z,26.67
2023-03-28T01:15:13.020Z,34.30
2023-03-28T01:17:51.281Z,25.17
2023-03-28T01:20:37.069Z,19.27
2023-03-28T01:23:39.248Z,19.43
2023-03-28T01:26:54.030Z,14.20
2023-03-28T01:30:02.673Z,14.73
2023-03-28T01:33:27.046Z,14.20
2023-03-28T01:36:35.672Z,13.87
2023-03-28T01:39:13.129Z,9.60
2023-03-28T01:41:48.049Z,10.37
2023-03-28T01:44:24.067Z,11.23
2023-03-28T01:47:00.901Z,10.53
2023-03-28T01:49:41.061Z,8.20
2023-03-28T01:52:17.341Z,9.63
2023-03-28T01:54:54.335Z,11.13
2023-03-28T01:57:26.502Z,12.30
2023-03-28T02:00:08.106Z,10.80
2023-03-28T02:03:02.230Z,10.57
2023-03-28T02:05:40.106Z,11.30
2023-03-28T02:08:14.628Z,10.37
2023-03-28T02:10:52.073Z,8.47
2023-03-28T02:13:42.071Z,10.20
2023-03-28T02:16:42.479Z,8.97
2023-03-28T02:19:34.043Z,10.13
2023-03-28T02:22:27.378Z,7.73
2023-03-28T02:25:16.062Z,8.97
2023-03-28T02:28:05.442Z,8.20
2023-03-28T02:30:44.112Z,12.40
2023-03-28T02:33:38.029Z,14.17
2023-03-28T02:36:25.127Z,12.97
2023-03-28T02:39:07.375Z,15.67
2023-03-28T02:41:51.135Z,11.40
2023-03-28T02:44:45.616Z,11.77
2023-03-28T02:47:21.003Z,13.10
2023-03-28T02:50:02.066Z,10.80
2023-03-28T02:52:42.093Z,12.27
2023-03-28T02:55:17.539Z,13.37
2023-03-28T02:58:14.562Z,13.77
2023-03-28T03:00:44.339Z,18.00
2023-03-28T03:03:15.089Z,14.70
2023-03-28T03:05:43.456Z,13.87
2023-03-28T03:08:11.725Z,12.07
2023-03-28T03:10:43.182Z,15.00
2023-03-28T03:13:11.522Z,14.30
2023-03-28T03:15:42.170Z,11.63
2023-03-28T03:18:32.465Z,12.87
2023-03-28T03:21:02.087Z,13.67
2023-03-28T03:23:31.090Z,12.37
2023-03-28T03:26:01.988Z,12.93
2023-03-28T03:28:39.773Z,13.60
2023-03-28T03:31:09.280Z,10.63
2023-03-28T03:33:40.139Z,13.20
2023-03-28T03:36:12.728Z,15.50
2023-03-28T03:38:44.481Z,10.47
2023-03-28T03:41:17.925Z,11.43
2023-03-28T03:43:47.351Z,14.40
2023-03-28T03:46:15.708Z,11.43
2023-03-28T03:48:49.100Z,10.87
2023-03-28T03:51:19.090Z,15.50
2023-03-28T03:53:51.122Z,15.40
2023-03-28T03:56:22.742Z,10.57
2023-03-28T03:59:00.476Z,12.40
2023-03-28T04:01:32.084Z,11.57
2023-03-28T04:04:41.111Z,12.77
2023-03-28T04:07:12.279Z,11.47
2023-03-28T04:09:42.091Z,12.27
2023-03-28T04:12:12.593Z,11.63
2023-03-28T04:14:48.123Z,10.97
2023-03-28T04:17:45.221Z,11.27
2023-03-28T04:20:24.205Z,11.30
2023-03-28T04:23:10.315Z,12.07
2023-03-28T04:25:42.096Z,10.37
2023-03-28T04:28:20.816Z,11.33
2023-03-28T04:31:02.804Z,11.90
2023-03-28T04:33:57.611Z,11.70
2023-03-28T04:36:31.131Z,10.50
2023-03-28T04:39:03.954Z,14.07
2023-03-28T04:41:56.053Z,9.83
2023-03-28T04:44:43.106Z,9.70
2023-03-28T04:47:13.792Z,12.33
2023-03-28T04:49:41.959Z,10.50
2023-03-28T04:52:11.680Z,10.27
2023-03-28T04:54:43.111Z,11.63
2023-03-28T04:57:13.799Z,12.23
2023-03-28T04:59:53.232Z,13.03
2023-03-28T05:02:44.644Z,9.60
2023-03-28T05:05:16.231Z,11.00
2023-03-28T05:07:46.168Z,13.30
2023-03-28T05:10:16.126Z,14.77
2023-03-28T05:12:45.167Z,12.53
2023-03-28T05:15:21.491Z,11.07
2023-03-28T05:18:11.642Z,8.20
2023-03-28T05:20:39.964Z,15.40
2023-03-28T05:23:09.863Z,12.73
2023-03-28T05:25:41.399Z,11.40
2023-03-28T05:28:10.136Z,11.43
2023-03-28T05:30:49.248Z,11.43
2023-03-28T05:33:17.675Z,13.90
2023-03-28T05:35:47.340Z,15.23
2023-03-28T05:38:17.852Z,15.93
2023-03-28T05:40:54.109Z,11.33
2023-03-28T05:43:24.154Z,10.63
2023-03-28T05:45:53.196Z,12.07
2023-03-28T05:48:23.559Z,14.80
2023-03-28T05:50:51.760Z,13.97
2023-03-28T05:53:22.141Z,14.83
2023-03-28T05:55:52.026Z,16.43
2023-03-28T05:58:20.476Z,12.73
2023-03-28T06:00:50.433Z,12.13
2023-03-28T06:03:20.282Z,17.07
2023-03-28T06:05:49.514Z,14.73
2023-03-28T06:08:22.773Z,16.80
2023-03-28T06:10:51.175Z,14.50
2023-03-28T06:13:35.903Z,16.70
2023-03-28T06:16:06.201Z,14.27
2023-03-28T06:18:37.122Z,20.60
2023-03-28T06:21:07.528Z,18.50
2023-03-28T06:23:37.286Z,17.73
2023-03-28T06:26:06.584Z,19.40
2023-03-28T06:28:42.381Z,17.17
2023-03-28T06:31:20.825Z,21.50
2023-03-28T06:33:50.234Z,18.63
2023-03-28T06:36:21.224Z,21.00
2023-03-28T06:38:52.351Z,15.43
2023-03-28T06:41:23.153Z,20.90
2023-03-28T06:43:54.979Z,17.33
2023-03-28T06:46:43.195Z,17.03
2023-03-28T06:49:14.271Z,17.43
2023-03-28T06:52:01.168Z,17.47
2023-03-28T06:54:32.271Z,18.73
2023-03-28T06:57:00.523Z,19.40
2023-03-28T06:59:30.270Z,17.40
2023-03-28T07:02:03.943Z,20.37
2023-03-28T07:04:38.347Z,16.73
2023-03-28T07:07:11.223Z,15.80
2023-03-28T07:09:41.122Z,21.37
2023-03-28T07:12:13.963Z,18.13
2023-03-28T07:14:44.649Z,16.70
2023-03-28T07:17:13.257Z,17.03
2023-03-28T07:19:41.771Z,18.73
2023-03-28T07:22:10.432Z,16.50
2023-03-28T07:24:40.171Z,17.30
2023-03-28T07:27:16.148Z,20.23
2023-03-28T07:29:47.141Z,19.27
2023-03-28T07:32:17.134Z,17.27
2023-03-28T07:34:47.107Z,17.67
2023-03-28T07:37:22.377Z,17.30
2023-03-28T07:40:13.068Z,19.63
2023-03-28T07:42:42.696Z,15.87
2023-03-28T07:45:13.448Z,17.77
2023-03-28T07:47:43.205Z,14.57
2023-03-28T07:50:13.185Z,16.30
2023-03-28T07:52:45.633Z,20.40
2023-03-28T07:55:17.884Z,17.57
2023-03-28T07:57:51.149Z,14.67
2023-03-28T08:00:43.970Z,17.20
2023-03-28T08:03:43.241Z,17.40
2023-03-28T08:06:28.585Z,16.27
2023-03-28T08:09:25.180Z,15.33
2023-03-28T08:12:09.458Z,13.37
2023-03-28T08:14:41.265Z,16.47
2023-03-28T08:17:10.729Z,14.77
2023-03-28T08:19:38.886Z,14.93
2023-03-28T08:22:13.152Z,14.90
2023-03-28T08:24:50.305Z,12.97
2023-03-28T08:27:25.226Z,14.10
2023-03-28T08:29:59.016Z,16.93
2023-03-28T08:32:34.238Z,16.40
2023-03-28T08:35:06.985Z,9.00
2023-03-28T08:37:39.021Z,10.60
2023-03-28T08:40:10.849Z,9.27
2023-03-28T08:43:03.917Z,8.90
2023-03-28T08:45:46.822Z,10.87
2023-03-28T08:48:22.328Z,7.33
2023-03-28T08:50:58.827Z,8.93
2023-03-28T08:53:34.619Z,5.10
2023-03-28T08:56:06.223Z,4.60
2023-03-28T08:58:42.593Z,4.40
2023-03-28T09:01:14.486Z,4.27
2023-03-28T09:03:42.806Z,3.90
2023-03-28T09:06:27.066Z,5.73
2023-03-28T09:09:28.948Z,5.93
2023-03-28T09:12:35.659Z,7.13
2023-03-28T09:15:25.292Z,4.87
2023-03-28T09:18:06.621Z,6.63
2023-03-28T09:20:43.005Z,7.40
2023-03-28T09:23:46.172Z,4.93
2023-03-28T09:26:36.777Z,8.00
2023-03-28T09:29:14.742Z,10.93
2023-03-28T09:31:47.334Z,9.77
2023-03-28T09:34:23.108Z,10.57
2023-03-28T09:36:57.193Z,10.77
2023-03-28T09:39:34.062Z,8.93
2023-03-28T09:42:08.198Z,12.70
2023-03-28T09:44:55.124Z,10.40
2023-03-28T09:47:47.520Z,11.10
2023-03-28T09:50:22.540Z,13.47
2023-03-28T09:52:59.051Z,14.37
2023-03-28T09:55:31.232Z,14.73
2023-03-28T09:58:05.567Z,14.40
2023-03-28T10:00:44.183Z,15.27
2023-03-28T10:03:54.179Z,13.20
2023-03-28T10:06:40.146Z,13.23
2023-03-28T10:09:20.791Z,15.07
2023-03-28T10:12:04.205Z,13.73
2023-03-28T10:14:37.191Z,9.43
2023-03-28T10:17:15.936Z,11.00
2023-03-28T10:19:52.220Z,11.33
2023-03-28T10:22:26.235Z,8.43
2023-03-28T10:24:57.482Z,7.07
2023-03-28T10:27:29.175Z,10.30
2023-03-28T10:30:00.240Z,7.57
2023-03-28T10:32:34.227Z,6.07
2023-03-28T10:35:35.823Z,4.57
2023-03-28T10:38:24.114Z,5.73
2023-03-28T10:41:20.179Z,4.77
2023-03-28T10:44:19.730Z,4.63
2023-03-28T10:47:05.215Z,4.33
2023-03-28T10:49:47.333Z,3.70
2023-03-28T10:52:28.302Z,3.23
2023-03-28T10:55:10.195Z,4.53
2023-03-28T10:57:59.224Z,4.97
2023-03-28T11:00:33.768Z,2.57
2023-03-28T11:03:16.365Z,6.17
2023-03-28T11:06:08.075Z,2.90
2023-03-28T11:08:55.822Z,3.67
2023-03-28T11:11:42.102Z,5.40
2023-03-28T11:14:26.218Z,3.67
2023-03-28T11:16:59.975Z,2.53
2023-03-28T11:19:56.203Z,5.67
2023-03-28T11:22:38.815Z,6.70
2023-03-28T11:25:22.234Z,7.57
2023-03-28T11:28:05.299Z,7.10
2023-03-28T11:30:39.206Z,5.67
2023-03-28T11:33:37.257Z,6.33
2023-03-28T11:36:20.875Z,3.53
2023-03-28T11:38:55.012Z,2.80
2023-03-28T11:41:28.293Z,4.67
2023-03-28T11:44:04.151Z,6.40
2023-03-28T11:46:36.279Z,4.30
2023-03-28T11:49:16.243Z,3.63
2023-03-28T11:51:52.220Z,4.23
2023-03-28T11:54:24.260Z,1.77
2023-03-28T11:56:59.694Z,4.17
2023-03-28T11:59:46.458Z,4.73
2023-03-28T12:02:28.709Z,5.20
2023-03-28T12:05:02.925Z,7.77
2023-03-28T12:07:40.285Z,3.43
2023-03-28T12:10:29.271Z,2.40
2023-03-28T12:13:11.311Z,5.67
2023-03-28T12:15:50.321Z,2.70
2023-03-28T12:18:31.114Z,2.57
2023-03-28T12:21:07.328Z,2.30
2023-03-28T12:24:02.275Z,3.07
2023-03-28T12:26:58.044Z,2.33
2023-03-28T12:29:33.688Z,5.77
2023-03-28T12:32:11.798Z,1.50
2023-03-28T12:34:44.221Z,1.73
2023-03-28T12:37:29.937Z,1.73
2023-03-28T12:40:24.272Z,3.37
2023-03-28T12:42:57.289Z,4.13
2023-03-28T12:45:31.568Z,3.33
2023-03-28T12:48:07.391Z,2.87
2023-03-28T12:50:48.249Z,5.10
2023-03-28T12:53:20.500Z,6.07
2023-03-28T12:55:49.893Z,1.77
2023-03-28T12:58:28.254Z,5.73
2023-03-28T13:01:33.888Z,5.57
2023-03-28T13:04:30.042Z,6.80
2023-03-28T13:07:24.624Z,3.30
2023-03-28T13:10:00.912Z,4.50
2023-03-28T13:12:39.294Z,2.23
2023-03-28T13:15:27.278Z,3.43
2023-03-28T13:18:29.939Z,3.57
2023-03-28T13:21:00.889Z,5.37
2023-03-28T13:23:39.244Z,1.93
2023-03-28T13:26:09.193Z,1.80
2023-03-28T13:28:44.134Z,2.67
2023-03-28T13:34:25.383Z,3.27
2023-03-28T13:36:58.360Z,4.63
2023-03-28T13:39:27.586Z,2.60
2023-03-28T13:42:02.320Z,3.10
2023-03-28T13:44:46.002Z,5.27
2023-03-28T13:47:28.267Z,2.80
2023-03-28T13:50:03.839Z,2.73
2023-03-28T13:52:33.284Z,4.50
2023-03-28T13:55:02.868Z,2.50
2023-03-28T13:57:31.679Z,3.17
2023-03-28T14:00:04.519Z,5.47
2023-03-28T14:02:44.463Z,3.30
2023-03-28T14:05:20.561Z,3.03
2023-03-28T14:07:49.352Z,1.57
2023-03-28T14:10:32.169Z,4.60
2023-03-28T14:13:05.075Z,1.70
2023-03-28T14:15:37.126Z,2.87
2023-03-28T14:18:05.710Z,3.57
2023-03-28T14:20:36.276Z,3.87
2023-03-28T14:23:06.360Z,2.70
2023-03-28T14:25:39.185Z,1.57
2023-03-28T14:28:09.603Z,2.70
2023-03-28T14:30:42.740Z,5.17
2023-03-28T14:33:22.309Z,1.33
2023-03-28T14:36:02.978Z,4.53
2023-03-28T14:38:36.331Z,5.77
2023-03-28T14:41:09.284Z,3.13
2023-03-28T14:43:38.275Z,3.83
2023-03-28T14:46:11.527Z,1.60
2023-03-28T14:49:08.290Z,3.60
2023-03-28T14:51:47.090Z,4.10
2023-03-28T14:54:20.676Z,5.10
2023-03-28T14:56:49.435Z,3.23
2023-03-28T14:59:19.825Z,2.50
2023-03-28T15:01:52.307Z,3.40
2023-03-28T15:04:22.313Z,4.37
2023-03-28T15:06:57.297Z,3.13
2023-03-28T15:09:31.415Z,4.20
2023-03-28T15:12:05.455Z,2.37
2023-03-28T15:14:39.382Z,6.03
2023-03-28T15:17:08.295Z,1.57
2023-03-28T15:19:40.148Z,3.90
2023-03-28T15:22:14.556Z,3.33
2023-03-28T15:24:42.872Z,6.97
2023-03-28T15:27:24.105Z,1.93
2023-03-28T15:29:56.126Z,5.70
2023-03-28T15:32:24.761Z,6.57
2023-03-28T15:35:04.129Z,2.63
2023-03-28T15:37:43.368Z,3.53
2023-03-28T15:40:22.795Z,4.93
2023-03-28T15:42:52.456Z,3.20
2023-03-28T15:45:30.962Z,3.03
2023-03-28T15:47:59.343Z,2.87
2023-03-28T15:50:33.278Z,3.93
2023-03-28T15:53:07.361Z,2.90
2023-03-28T15:55:36.090Z,2.50
2023-03-28T15:58:07.037Z,4.77
2023-03-28T16:00:47.101Z,2.73
2023-03-28T16:03:32.962Z,5.43
2023-03-28T16:06:26.849Z,1.90
2023-03-28T16:09:20.716Z,4.70
2023-03-28T16:11:53.324Z,4.17
2023-03-28T16:14:46.301Z,4.90
2023-03-28T16:17:25.718Z,2.30
2023-03-28T16:20:15.374Z,4.00
2023-03-28T16:22:46.173Z,2.97
2023-03-28T16:25:18.796Z,2.57
2023-03-28T16:27:47.328Z,3.97
2023-03-28T16:30:23.357Z,2.70
2023-03-28T16:32:52.365Z,4.83
2023-03-28T16:35:21.326Z,2.60
2023-03-28T16:37:49.753Z,3.23
2023-03-28T16:40:21.397Z,2.40
2023-03-28T16:42:50.353Z,3.40
2023-03-28T16:45:20.580Z,3.07
2023-03-28T16:47:48.858Z,4.07
2023-03-28T16:50:17.494Z,4.50
2023-03-28T16:52:49.412Z,3.37
2023-03-28T16:55:20.466Z,4.20
2023-03-28T16:57:50.300Z,4.00
2023-03-28T17:00:22.905Z,5.60
2023-03-28T17:02:55.421Z,10.17
2023-03-28T17:05:23.720Z,4.67
2023-03-28T17:07:52.310Z,4.07
2023-03-28T17:10:21.981Z,3.97
2023-03-28T17:12:52.717Z,2.80
2023-03-28T17:15:23.346Z,3.03
2023-03-28T17:17:51.696Z,4.40
2023-03-28T17:20:20.336Z,6.00
2023-03-28T17:22:48.594Z,4.03
2023-03-28T17:25:18.366Z,3.47
2023-03-28T17:27:48.340Z,3.77
2023-03-28T17:30:16.527Z,3.87
2023-03-28T17:32:45.318Z,3.83
2023-03-28T17:35:14.759Z,4.60
2023-03-28T17:37:44.760Z,4.87
2023-03-28T17:40:13.704Z,4.53
2023-03-28T17:42:44.392Z,3.77
2023-03-28T17:45:14.410Z,4.13
2023-03-28T17:47:42.714Z,4.97
2023-03-28T17:50:11.462Z,5.47
2023-03-28T17:52:39.776Z,2.60
2023-03-28T17:55:11.030Z,3.97
2023-03-28T17:57:40.442Z,4.37
2023-03-28T18:00:10.447Z,5.93
2023-03-28T18:02:47.483Z,4.47
2023-03-28T18:05:35.682Z,4.73
2023-03-28T18:08:04.697Z,2.20
2023-03-28T18:10:32.875Z,4.40
2023-03-28T18:13:04.542Z,3.00
2023-03-28T18:15:33.500Z,3.57
2023-03-28T18:18:03.514Z,3.40
2023-03-28T18:20:31.933Z,5.13
2023-03-28T18:23:03.268Z,6.57
2023-03-28T18:25:34.108Z,4.63
2023-03-28T18:28:03.253Z,4.80
2023-03-28T18:30:31.675Z,3.87
2023-03-28T18:33:00.071Z,3.67
2023-03-28T18:35:32.811Z,5.00
2023-03-28T18:38:01.541Z,5.00
2023-03-28T18:40:29.952Z,4.60
2023-03-28T18:42:59.376Z,4.57
2023-03-28T18:45:28.583Z,5.37
2023-03-28T18:47:56.980Z,4.33
2023-03-28T18:50:27.567Z,9.07
2023-03-28T18:52:57.485Z,4.50
2023-03-28T18:55:26.509Z,7.50
2023-03-28T18:57:55.097Z,6.60
2023-03-28T19:00:23.885Z,4.77
2023-03-28T19:02:57.523Z,4.40
2023-03-28T19:05:26.417Z,7.23
2023-03-28T19:07:57.005Z,5.90
2023-03-28T19:10:26.045Z,6.63
2023-03-28T19:12:57.543Z,6.37
2023-03-28T19:15:26.664Z,4.57
2023-03-28T19:17:54.818Z,5.83
2023-03-28T19:20:23.147Z,5.13
2023-03-28T19:22:51.830Z,5.77
2023-03-28T19:25:25.042Z,7.20
2023-03-28T19:27:53.472Z,5.63
2023-03-28T19:30:21.801Z,5.57
2023-03-28T19:32:50.394Z,4.87
2023-03-28T19:35:19.211Z,6.27
2023-03-28T19:37:47.676Z,8.80
2023-03-28T19:40:19.391Z,7.33
2023-03-28T19:42:49.360Z,6.53
2023-03-28T19:45:17.818Z,4.33
2023-03-28T19:47:46.056Z,4.43
2023-03-28T19:50:14.280Z,5.07
2023-03-28T19:52:43.588Z,7.30
2023-03-28T19:55:12.366Z,5.10
2023-03-28T19:57:40.973Z,7.77
2023-03-28T20:00:12.374Z,7.30
2023-03-28T20:02:43.182Z,8.97
2023-03-28T20:05:15.448Z,6.53
2023-03-28T20:07:43.837Z,8.20
2023-03-28T20:10:13.494Z,6.27
2023-03-28T20:12:41.969Z,8.67
2023-03-28T20:15:12.447Z,7.97
2023-03-28T20:17:43.277Z,8.60
2023-03-28T20:20:12.954Z,7.37
2023-03-28T20:22:41.363Z,7.13
2023-03-28T20:25:11.372Z,6.90
2023-03-28T20:27:39.673Z,7.83
2023-03-28T20:30:11.460Z,7.23
2023-03-28T20:32:41.463Z,8.10
2023-03-28T20:35:11.079Z,8.10
2023-03-28T20:37:39.369Z,8.17
2023-03-28T20:40:11.382Z,6.70
2023-03-28T20:42:43.462Z,5.77
2023-03-28T20:45:22.219Z,5.80
2023-03-28T20:47:59.404Z,6.53
2023-03-28T20:50:34.059Z,6.07
2023-03-28T20:53:04.753Z,5.37
2023-03-28T20:55:34.022Z,8.47
2023-03-28T20:58:02.999Z,7.57
2023-03-28T21:00:32.377Z,7.03
2023-03-28T21:03:03.474Z,7.27
2023-03-28T21:05:33.398Z,5.83
2023-03-28T21:08:02.253Z,7.20
2023-03-28T21:10:32.455Z,6.03
2023-03-28T21:13:02.385Z,5.83
2023-03-28T21:15:31.118Z,6.80
2023-03-28T21:18:00.493Z,5.57
2023-03-28T21:20:30.378Z,5.70
2023-03-28T21:23:01.120Z,6.47
2023-03-28T21:25:29.460Z,4.97
2023-03-28T21:27:57.804Z,6.43
2023-03-28T21:30:26.417Z,6.33
2023-03-28T21:33:02.185Z,4.90
2023-03-28T21:35:35.443Z,6.90
2023-03-28T21:38:03.720Z,5.73
2023-03-28T21:40:32.005Z,5.77
2023-03-28T21:43:04.420Z,6.17
2023-03-28T21:45:33.400Z,4.97
2023-03-28T21:48:01.772Z,5.50
2023-03-28T21:50:31.460Z,4.97
2023-03-28T21:53:05.467Z,7.50
2023-03-28T21:55:34.411Z,3.20
2023-03-28T21:58:02.664Z,4.13
2023-03-28T22:00:31.082Z,5.57
2023-03-28T22:02:59.798Z,4.33
2023-03-28T22:05:31.496Z,4.07
2023-03-28T22:08:01.885Z,5.40
2023-03-28T22:10:30.094Z,4.67
2023-03-28T22:12:59.723Z,5.97
2023-03-28T22:15:29.421Z,7.37
2023-03-28T22:17:59.613Z,3.70
2023-03-28T22:20:29.189Z,6.50
2023-03-28T22:23:00.683Z,4.73
2023-03-28T22:25:34.659Z,5.73
2023-03-28T22:28:04.865Z,4.90
2023-03-28T22:30:34.406Z,4.63
2023-03-28T22:33:03.941Z,4.73
2023-03-28T22:35:35.637Z,5.40
2023-03-28T22:38:04.367Z,3.47
2023-03-28T22:40:33.856Z,3.83
2023-03-28T22:43:03.439Z,6.63
2023-03-28T22:45:31.754Z,6.63
2023-03-28T22:48:03.554Z,5.67
2023-03-28T22:50:33.663Z,4.50
2023-03-28T22:53:02.367Z,4.83
2023-03-28T22:55:32.399Z,5.50
2023-03-28T22:58:01.915Z,6.40
2023-03-28T23:00:31.500Z,5.80
2023-03-28T23:02:59.976Z,5.77
2023-03-28T23:05:29.617Z,3.70
2023-03-28T23:07:57.906Z,4.03
2023-03-28T23:10:26.006Z,5.03
2023-03-28T23:12:55.460Z,4.40
2023-03-28T23:15:27.805Z,5.60
2023-03-28T23:17:57.446Z,5.73
2023-03-28T23:20:26.628Z,6.00
2023-03-28T23:22:54.982Z,6.17
2023-03-28T23:25:23.234Z,4.60
2023-03-28T23:27:56.484Z,5.13
2023-03-28T23:30:27.284Z,6.33
2023-03-28T23:32:56.067Z,6.73
2023-03-28T23:35:24.412Z,7.97
2023-03-28T23:37:53.405Z,4.87
2023-03-28T23:40:25.409Z,6.73
2023-03-28T23:42:54.231Z,5.97
2023-03-28T23:45:22.577Z,5.33
2023-03-28T23:47:52.164Z,7.73
2023-03-28T23:50:23.871Z,6.80
2023-03-28T23:52:51.998Z,9.00
2023-03-28T23:55:20.370Z,8.80
2023-03-28T23:57:48.622Z,8.43
